createdAt,value
2022-12-11T00:00:27.153Z,2.35
2022-12-11T00:02:54.009Z,2.15
2022-12-11T00:05:20.838Z,2.72
2022-12-11T00:07:47.691Z,2.95
2022-12-11T00:10:14.562Z,2.88
2022-12-11T00:12:41.361Z,3.10
2022-12-11T00:15:09.039Z,2.58
2022-12-11T00:17:36.229Z,1.88
2022-12-11T00:20:03.863Z,2.90
2022-12-11T00:22:31.270Z,2.50
2022-12-11T00:24:58.038Z,2.55
2022-12-11T00:27:25.132Z,2.35
2022-12-11T00:29:51.890Z,2.65
2022-12-11T00:32:18.699Z,3.05
2022-12-11T00:34:45.543Z,2.83
2022-12-11T00:37:12.393Z,2.10
2022-12-11T00:39:39.948Z,2.38
2022-12-11T00:42:07.981Z,2.15
2022-12-11T00:44:35.213Z,2.40
2022-12-11T00:47:02.510Z,2.33
2022-12-11T00:49:29.667Z,4.45
2022-12-11T00:51:56.446Z,1.65
2022-12-11T00:54:23.276Z,3.05
2022-12-11T00:56:50.796Z,2.88
2022-12-11T00:59:17.709Z,1.80
2022-12-11T01:01:44.598Z,2.83
2022-12-11T01:04:11.428Z,2.15
2022-12-11T01:06:39.412Z,1.60
2022-12-11T01:09:24.951Z,3.00
2022-12-11T01:11:52.514Z,2.80
2022-12-11T01:14:19.792Z,3.40
2022-12-11T01:16:46.661Z,1.83
2022-12-11T01:19:13.596Z,2.20
2022-12-11T01:21:41.170Z,2.13
2022-12-11T01:24:08.167Z,1.52
2022-12-11T01:26:35.039Z,2.25
2022-12-11T01:29:02.113Z,2.45
2022-12-11T01:31:29.275Z,3.03
2022-12-11T01:33:56.358Z,1.38
2022-12-11T01:36:23.821Z,2.13
2022-12-11T01:38:50.748Z,2.03
2022-12-11T01:41:18.558Z,2.08
2022-12-11T01:44:28.040Z,2.10
2022-12-11T01:46:54.936Z,2.22
2022-12-11T01:49:25.348Z,2.45
2022-12-11T01:54:27.640Z,2.00
2022-12-11T01:56:57.569Z,1.50
2022-12-11T01:59:28.490Z,4.10
2022-12-11T02:01:59.493Z,2.72
2022-12-11T02:04:26.627Z,3.35
2022-12-11T02:06:53.684Z,5.75
2022-12-11T02:09:23.670Z,4.57
2022-12-11T02:11:53.801Z,3.17
2022-12-11T02:14:27.827Z,1.98
2022-12-11T02:17:11.893Z,1.80
2022-12-11T02:20:01.579Z,1.52
2022-12-11T02:23:10.923Z,2.63
2022-12-11T02:25:56.465Z,1.73
2022-12-11T02:28:25.992Z,1.70
2022-12-11T02:31:01.249Z,1.20
2022-12-11T02:33:45.858Z,2.38
2022-12-11T02:36:16.145Z,2.08
2022-12-11T02:38:50.564Z,1.70
2022-12-11T02:41:20.886Z,2.00
2022-12-11T02:43:50.574Z,1.27
2022-12-11T02:46:19.527Z,2.45
2022-12-11T02:48:49.553Z,2.45
2022-12-11T02:51:18.764Z,2.55
2022-12-11T02:53:46.727Z,2.05
2022-12-11T02:56:19.355Z,1.25
2022-12-11T02:58:55.321Z,2.72
2022-12-11T03:01:26.470Z,2.15
2022-12-11T03:03:54.741Z,1.88
2022-12-11T03:06:27.713Z,1.45
2022-12-11T03:08:54.589Z,1.85
2022-12-11T03:11:21.368Z,2.95
2022-12-11T03:13:48.296Z,2.78
2022-12-11T03:16:36.416Z,2.15
2022-12-11T03:19:40.811Z,2.30
2022-12-11T03:22:16.524Z,5.05
2022-12-11T03:24:51.148Z,1.67
2022-12-11T03:27:36.917Z,1.90
2022-12-11T03:30:16.597Z,1.48
2022-12-11T03:32:58.120Z,1.70
2022-12-11T03:35:59.871Z,1.88
2022-12-11T03:38:33.420Z,1.55
2022-12-11T03:41:03.305Z,2.83
2022-12-11T03:43:32.130Z,2.28
2022-12-11T03:46:00.754Z,2.35
2022-12-11T03:48:34.921Z,2.88
2022-12-11T03:51:05.317Z,2.05
2022-12-11T03:56:02.024Z,2.60
2022-12-11T03:58:28.776Z,3.78
2022-12-11T04:00:55.773Z,2.20
2022-12-11T04:03:22.696Z,2.45
2022-12-11T04:05:51.491Z,1.88
2022-12-11T04:08:20.867Z,1.73
2022-12-11T04:10:48.052Z,1.87
2022-12-11T04:13:14.901Z,1.65
2022-12-11T04:15:41.744Z,2.72
2022-12-11T04:18:28.265Z,4.32
2022-12-11T04:21:14.493Z,2.10
2022-12-11T04:24:00.103Z,2.10
2022-12-11T04:26:27.488Z,4.78
2022-12-11T04:28:54.477Z,1.92
2022-12-11T04:31:22.628Z,2.25
2022-12-11T04:33:50.104Z,2.40
2022-12-11T04:36:17.252Z,4.05
2022-12-11T04:38:44.071Z,2.03
2022-12-11T04:41:13.631Z,3.22
2022-12-11T04:43:40.739Z,2.15
2022-12-11T04:46:20.065Z,2.67
2022-12-11T04:48:51.177Z,2.28
2022-12-11T04:51:20.846Z,2.05
2022-12-11T04:53:47.717Z,1.70
2022-12-11T04:56:16.531Z,1.67
2022-12-11T04:58:44.195Z,2.67
2022-12-11T05:01:20.077Z,1.92
2022-12-11T05:03:47.135Z,4.93
2022-12-11T05:06:14.524Z,2.55
2022-12-11T05:08:42.771Z,2.15
2022-12-11T05:11:12.059Z,2.72
2022-12-11T05:13:39.194Z,2.10
2022-12-11T05:16:07.468Z,2.55
2022-12-11T05:18:34.803Z,1.85
2022-12-11T05:21:07.910Z,2.20
2022-12-11T05:23:34.897Z,2.60
2022-12-11T05:26:05.174Z,2.22
2022-12-11T05:28:33.898Z,2.03
2022-12-11T05:31:10.768Z,2.55
2022-12-11T05:33:37.602Z,1.77
2022-12-11T05:36:05.044Z,2.25
2022-12-11T05:38:31.930Z,2.60
2022-12-11T05:41:04.305Z,1.88
2022-12-11T05:43:33.934Z,3.85
2022-12-11T05:46:16.869Z,2.90
2022-12-11T05:48:46.159Z,2.30
2022-12-11T05:51:14.646Z,2.38
2022-12-11T05:53:42.814Z,2.08
2022-12-11T05:56:14.680Z,2.50
2022-12-11T05:58:42.388Z,3.25
2022-12-11T06:01:16.322Z,1.38
2022-12-11T06:03:43.371Z,1.50
2022-12-11T06:06:10.554Z,1.77
2022-12-11T06:08:37.720Z,2.05
2022-12-11T06:11:04.738Z,1.63
2022-12-11T06:13:31.852Z,1.90
2022-12-11T06:16:03.663Z,1.35
2022-12-11T06:18:30.897Z,1.77
2022-12-11T06:20:57.849Z,2.33
2022-12-11T06:23:24.712Z,1.80
2022-12-11T06:25:51.487Z,1.88
2022-12-11T06:28:18.258Z,1.45
2022-12-11T06:30:45.279Z,1.85
2022-12-11T06:33:12.169Z,1.83
2022-12-11T06:35:42.222Z,2.25
2022-12-11T06:38:10.823Z,2.67
2022-12-11T06:40:38.272Z,2.13
2022-12-11T06:43:05.058Z,1.75
2022-12-11T06:45:31.976Z,2.35
2022-12-11T06:47:59.014Z,1.70
2022-12-11T06:50:26.113Z,2.22
2022-12-11T06:52:53.051Z,3.05
2022-12-11T06:55:19.823Z,1.65
2022-12-11T06:57:46.650Z,2.03
2022-12-11T07:00:14.346Z,2.50
2022-12-11T07:02:41.187Z,4.40
2022-12-11T07:05:08.322Z,1.90
2022-12-11T07:07:35.230Z,2.45
2022-12-11T07:10:07.946Z,3.38
2022-12-11T07:12:36.118Z,2.03
2022-12-11T07:15:03.994Z,2.45
2022-12-11T07:17:31.277Z,2.33
2022-12-11T07:19:58.068Z,2.33
2022-12-11T07:22:24.965Z,1.45
2022-12-11T07:24:51.734Z,2.10
2022-12-11T07:27:18.530Z,3.40
2022-12-11T07:29:45.316Z,2.45
2022-12-11T07:32:12.288Z,2.08
2022-12-11T07:34:39.191Z,1.67
2022-12-11T07:37:06.031Z,2.13
2022-12-11T07:39:32.978Z,1.95
2022-12-11T07:41:59.827Z,2.33
2022-12-11T07:44:26.614Z,2.60
2022-12-11T07:46:53.409Z,2.30
2022-12-11T07:49:20.176Z,1.50
2022-12-11T07:51:46.976Z,2.55
2022-12-11T07:54:16.686Z,1.88
2022-12-11T07:56:48.613Z,1.15
2022-12-11T07:59:20.996Z,2.80
2022-12-11T08:01:47.886Z,2.70
2022-12-11T08:04:15.845Z,1.85
2022-12-11T08:06:43.402Z,2.80
2022-12-11T08:09:19.108Z,2.17
2022-12-11T08:11:50.558Z,3.58
2022-12-11T08:14:17.907Z,1.60
2022-12-11T08:16:44.877Z,3.00
2022-12-11T08:19:12.704Z,2.90
2022-12-11T08:21:40.223Z,2.75
2022-12-11T08:24:08.005Z,3.17
2022-12-11T08:26:34.831Z,2.08
2022-12-11T08:29:02.476Z,1.85
2022-12-11T08:31:29.970Z,2.78
2022-12-11T08:33:57.587Z,1.50
2022-12-11T08:36:24.948Z,2.22
2022-12-11T08:38:55.587Z,2.38
2022-12-11T08:41:28.438Z,1.73
2022-12-11T08:43:56.389Z,2.40
2022-12-11T08:46:26.675Z,1.55
2022-12-11T08:48:54.537Z,1.60
2022-12-11T08:51:24.231Z,2.20
2022-12-11T08:53:51.786Z,1.92
2022-12-11T08:56:20.584Z,2.80
2022-12-11T08:58:47.995Z,4.78
2022-12-11T09:01:21.760Z,1.55
2022-12-11T09:03:49.507Z,2.67
2022-12-11T09:06:18.720Z,2.42
2022-12-11T09:08:52.260Z,2.40
2022-12-11T09:11:22.424Z,2.05
2022-12-11T09:13:49.737Z,2.13
2022-12-11T09:16:18.752Z,2.83
2022-12-11T09:18:47.350Z,2.30
2022-12-11T09:21:17.879Z,2.63
2022-12-11T09:23:45.322Z,1.75
2022-12-11T09:26:15.503Z,1.60
2022-12-11T09:28:46.553Z,1.55
2022-12-11T09:31:19.925Z,1.48
2022-12-11T09:33:47.636Z,1.48
2022-12-11T09:36:14.440Z,1.55
2022-12-11T09:38:43.340Z,1.50
2022-12-11T09:41:40.634Z,1.65
2022-12-11T09:44:32.346Z,1.50
2022-12-11T09:46:59.596Z,2.33
2022-12-11T09:49:32.126Z,1.52
2022-12-11T09:52:02.427Z,1.67
2022-12-11T09:54:29.359Z,1.52
2022-12-11T09:57:15.549Z,1.38
2022-12-11T10:00:04.522Z,1.52
2022-12-11T10:02:50.377Z,1.38
2022-12-11T10:05:31.249Z,1.95
2022-12-11T10:08:10.046Z,2.05
2022-12-11T10:10:55.396Z,1.38
2022-12-11T10:13:25.304Z,2.13
2022-12-11T10:16:05.536Z,0.80
2022-12-11T10:18:33.810Z,2.00
2022-12-11T10:21:03.215Z,1.10
2022-12-11T10:23:50.894Z,0.77
2022-12-11T10:26:20.710Z,1.10
2022-12-11T10:28:47.980Z,1.77
2022-12-11T10:31:38.393Z,1.35
2022-12-11T10:34:16.109Z,1.50
2022-12-11T10:36:43.624Z,1.67
2022-12-11T10:39:19.659Z,2.17
2022-12-11T10:41:49.011Z,2.58
2022-12-11T10:44:18.931Z,1.38
2022-12-11T10:46:47.962Z,2.95
2022-12-11T10:49:30.223Z,1.20
2022-12-11T10:51:58.022Z,1.60
2022-12-11T10:54:33.734Z,3.00
2022-12-11T10:57:02.740Z,1.55
2022-12-11T10:59:48.862Z,1.50
2022-12-11T11:02:38.667Z,2.28
2022-12-11T11:05:28.314Z,1.45
2022-12-11T11:08:15.187Z,2.23
2022-12-11T11:11:01.579Z,1.52
2022-12-11T11:13:31.418Z,2.03
2022-12-11T11:16:19.821Z,1.63
2022-12-11T11:18:55.599Z,1.65
2022-12-11T11:21:24.911Z,0.90
2022-12-11T11:23:53.847Z,1.38
2022-12-11T11:26:38.240Z,3.05
2022-12-11T11:29:25.949Z,2.00
2022-12-11T11:31:52.866Z,2.10
2022-12-11T11:34:23.613Z,2.58
2022-12-11T11:36:58.791Z,1.75
2022-12-11T11:39:32.243Z,1.70
2022-12-11T11:42:27.822Z,1.98
2022-12-11T11:45:13.686Z,1.67
2022-12-11T11:48:13.158Z,1.38
2022-12-11T11:53:24.391Z,1.30
2022-12-11T11:56:18.003Z,1.50
2022-12-11T11:58:47.237Z,2.50
2022-12-11T12:01:19.756Z,2.53
2022-12-11T12:03:48.791Z,1.50
2022-12-11T12:06:50.474Z,2.05
2022-12-11T12:09:45.110Z,1.50
2022-12-11T12:12:37.019Z,1.77
2022-12-11T12:15:18.289Z,1.48
2022-12-11T12:18:01.553Z,1.30
2022-12-11T12:20:32.213Z,2.10
2022-12-11T12:23:31.941Z,2.85
2022-12-11T12:26:17.126Z,1.27
2022-12-11T12:28:48.995Z,1.45
2022-12-11T12:31:32.060Z,1.63
2022-12-11T12:33:58.814Z,2.50
2022-12-11T12:36:47.788Z,1.30
2022-12-11T12:39:45.676Z,1.20
2022-12-11T12:42:50.613Z,1.27
2022-12-11T12:45:33.132Z,2.28
2022-12-11T12:48:00.092Z,2.17
2022-12-11T12:50:33.854Z,1.77
2022-12-11T12:53:01.110Z,2.72
2022-12-11T12:55:31.960Z,5.82
2022-12-11T12:58:01.886Z,3.55
2022-12-11T13:00:38.775Z,4.38
2022-12-11T13:03:17.886Z,7.50
2022-12-11T13:06:01.642Z,4.03
2022-12-11T13:08:41.042Z,3.80
2022-12-11T13:11:11.190Z,3.50
2022-12-11T13:13:39.862Z,3.45
2022-12-11T13:16:17.375Z,4.20
2022-12-11T13:18:49.829Z,2.83
2022-12-11T13:21:38.384Z,3.25
2022-12-11T13:24:20.400Z,2.95
2022-12-11T13:26:49.302Z,5.38
2022-12-11T13:29:38.528Z,3.55
2022-12-11T13:32:30.030Z,4.07
2022-12-11T13:35:00.051Z,3.55
2022-12-11T13:37:47.404Z,5.35
2022-12-11T13:40:27.495Z,3.78
2022-12-11T13:43:17.564Z,3.05
2022-12-11T13:45:57.308Z,4.30
2022-12-11T13:48:29.920Z,6.90
2022-12-11T13:50:59.046Z,6.25
2022-12-11T13:53:26.278Z,6.53
2022-12-11T13:56:02.005Z,6.43
2022-12-11T13:58:30.320Z,4.85
2022-12-11T14:01:08.036Z,5.65
2022-12-11T14:03:35.795Z,6.32
2022-12-11T14:06:04.215Z,6.75
2022-12-11T14:08:35.510Z,6.50
2022-12-11T14:11:03.039Z,6.43
2022-12-11T14:13:36.313Z,8.77
2022-12-11T14:16:04.270Z,7.13
2022-12-11T14:18:35.371Z,7.57
2022-12-11T14:21:05.029Z,7.53
2022-12-11T14:23:36.609Z,7.00
2022-12-11T14:26:17.441Z,6.53
2022-12-11T14:28:44.555Z,7.10
2022-12-11T14:31:15.885Z,6.95
2022-12-11T14:33:54.330Z,5.47
2022-12-11T14:36:21.742Z,5.45
2022-12-11T14:38:57.588Z,4.57
2022-12-11T14:41:39.413Z,6.28
2022-12-11T14:44:12.536Z,4.72
2022-12-11T14:46:52.984Z,5.60
2022-12-11T14:49:34.092Z,4.82
2022-12-11T14:52:02.856Z,5.10
2022-12-11T14:54:38.836Z,7.35
2022-12-11T14:57:07.585Z,6.53
2022-12-11T14:59:44.605Z,6.05
2022-12-11T15:02:33.641Z,7.47
2022-12-11T15:05:14.072Z,7.40
2022-12-11T15:10:35.631Z,8.35
2022-12-11T15:13:06.366Z,16.08
2022-12-11T15:15:43.811Z,13.23
2022-12-11T15:18:23.285Z,10.93
2022-12-11T15:20:53.722Z,12.30
2022-12-11T15:23:21.112Z,18.27
2022-12-11T15:25:55.490Z,15.10
2022-12-11T15:28:29.305Z,16.33
2022-12-11T15:31:02.807Z,14.45
2022-12-11T15:33:34.353Z,12.50
2022-12-11T15:36:03.593Z,15.73
2022-12-11T15:38:33.862Z,14.55
2022-12-11T15:43:29.886Z,8.80
2022-12-11T15:45:57.070Z,8.98
2022-12-11T15:48:24.108Z,8.40
2022-12-11T15:50:50.992Z,10.18
2022-12-11T15:53:17.819Z,9.82
2022-12-11T15:55:44.676Z,11.80
2022-12-11T15:58:17.884Z,13.80
2022-12-11T16:00:44.941Z,13.25
2022-12-11T16:03:13.735Z,13.80
2022-12-11T16:05:42.017Z,15.52
2022-12-11T16:08:15.029Z,22.08
2022-12-11T16:10:43.490Z,14.07
2022-12-11T16:13:11.249Z,16.30
2022-12-11T16:15:43.151Z,14.63
2022-12-11T16:18:13.338Z,15.85
2022-12-11T16:20:41.511Z,12.65
2022-12-11T16:23:09.163Z,14.52
2022-12-11T16:25:40.923Z,13.10
2022-12-11T16:28:09.042Z,16.02
2022-12-11T16:30:37.321Z,11.35
2022-12-11T16:33:11.774Z,14.80
2022-12-11T16:35:39.676Z,14.38
2022-12-11T16:38:07.731Z,11.90
2022-12-11T16:40:34.623Z,10.38
2022-12-11T16:43:02.783Z,12.48
2022-12-11T16:45:29.625Z,7.88
2022-12-11T16:47:56.624Z,9.57
2022-12-11T16:50:24.091Z,8.32
2022-12-11T16:52:50.999Z,9.70
2022-12-11T16:55:21.164Z,6.32
2022-12-11T16:57:48.113Z,6.70
2022-12-11T17:00:15.780Z,5.15
2022-12-11T17:02:43.688Z,5.72
2022-12-11T17:05:11.028Z,4.97
2022-12-11T17:07:38.037Z,5.90
2022-12-11T17:10:05.326Z,5.75
2022-12-11T17:12:32.227Z,5.70
2022-12-11T17:14:59.104Z,6.13
2022-12-11T17:17:26.324Z,5.20
2022-12-11T17:19:53.199Z,7.38
2022-12-11T17:22:20.342Z,5.22
2022-12-11T17:24:47.222Z,6.55
2022-12-11T17:27:14.431Z,5.38
2022-12-11T17:29:41.232Z,4.88
2022-12-11T17:32:08.538Z,5.50
2022-12-11T17:34:38.395Z,5.60
2022-12-11T17:37:06.192Z,4.63
2022-12-11T17:39:33.275Z,4.55
2022-12-11T17:42:00.426Z,4.25
2022-12-11T17:44:30.354Z,3.50
2022-12-11T17:46:58.367Z,3.58
2022-12-11T17:49:25.920Z,3.30
2022-12-11T17:51:55.204Z,17.27
2022-12-11T17:54:23.654Z,8.38
2022-12-11T17:56:51.321Z,8.07
2022-12-11T17:59:18.319Z,7.35
2022-12-11T18:01:45.666Z,5.10
2022-12-11T18:04:13.251Z,2.53
2022-12-11T18:06:40.188Z,3.03
2022-12-11T18:09:07.254Z,2.88
2022-12-11T18:11:34.745Z,2.65
2022-12-11T18:14:01.768Z,4.95
2022-12-11T18:16:31.703Z,2.78
2022-12-11T18:18:58.845Z,2.50
2022-12-11T18:21:33.484Z,2.63
2022-12-11T18:24:01.143Z,2.00
2022-12-11T18:26:28.131Z,3.47
2022-12-11T18:28:55.069Z,4.93
2022-12-11T18:31:22.621Z,2.03
2022-12-11T18:33:50.239Z,2.42
2022-12-11T18:36:19.323Z,3.97
2022-12-11T18:38:47.886Z,2.83
2022-12-11T18:41:16.891Z,3.13
2022-12-11T18:43:44.167Z,3.72
2022-12-11T18:46:14.302Z,2.70
2022-12-11T18:48:42.463Z,2.40
2022-12-11T18:51:12.752Z,4.63
2022-12-11T18:53:40.361Z,2.60
2022-12-11T18:56:13.648Z,4.18
2022-12-11T18:58:40.845Z,6.65
2022-12-11T19:01:09.484Z,4.82
2022-12-11T19:03:36.693Z,6.18
2022-12-11T19:06:12.590Z,5.43
2022-12-11T19:08:39.662Z,5.72
2022-12-11T19:11:07.371Z,4.30
2022-12-11T19:13:34.921Z,3.97
2022-12-11T19:16:01.973Z,5.18
2022-12-11T19:18:28.882Z,3.72
2022-12-11T19:21:04.879Z,3.63
2022-12-11T19:23:35.169Z,2.92
2022-12-11T19:26:02.387Z,3.72
2022-12-11T19:28:29.361Z,3.17
2022-12-11T19:30:56.253Z,4.75
2022-12-11T19:33:23.223Z,5.50
2022-12-11T19:35:50.085Z,6.68
2022-12-11T19:38:16.906Z,4.70
2022-12-11T19:40:44.451Z,4.70
2022-12-11T19:43:11.336Z,4.75
2022-12-11T19:45:38.423Z,2.75
2022-12-11T19:48:05.906Z,2.88
2022-12-11T19:50:35.659Z,2.97
2022-12-11T19:53:02.698Z,4.28
2022-12-11T19:55:29.490Z,2.63
2022-12-11T19:57:56.484Z,5.22
2022-12-11T20:00:23.608Z,2.67
2022-12-11T20:02:50.918Z,4.60
2022-12-11T20:05:18.206Z,4.35
2022-12-11T20:07:45.372Z,13.63
2022-12-11T20:10:12.352Z,10.07
2022-12-11T20:12:39.148Z,8.25
2022-12-11T20:15:06.360Z,5.50
2022-12-11T20:17:33.425Z,5.38
2022-12-11T20:20:00.487Z,7.32
2022-12-11T20:22:27.347Z,6.72
2022-12-11T20:24:54.166Z,4.93
2022-12-11T20:27:20.978Z,5.80
2022-12-11T20:29:47.958Z,5.35
2022-12-11T20:32:14.956Z,7.20
2022-12-11T20:34:42.293Z,5.40
2022-12-11T20:37:09.585Z,6.50
2022-12-11T20:39:36.827Z,6.43
2022-12-11T20:42:05.000Z,6.30
2022-12-11T20:44:32.721Z,6.80
2022-12-11T20:46:59.780Z,7.25
2022-12-11T20:49:26.732Z,6.85
2022-12-11T20:51:55.642Z,6.82
2022-12-11T20:54:22.460Z,4.47
2022-12-11T20:56:50.075Z,3.65
2022-12-11T20:59:17.041Z,3.67
2022-12-11T21:01:44.379Z,3.65
2022-12-11T21:04:11.640Z,4.57
2022-12-11T21:06:40.617Z,4.90
2022-12-11T21:09:17.690Z,3.78
2022-12-11T21:11:44.901Z,3.03
2022-12-11T21:14:11.708Z,5.25
2022-12-11T21:16:38.797Z,4.03
2022-12-11T21:19:06.356Z,3.72
2022-12-11T21:21:36.759Z,3.95
2022-12-11T21:26:30.682Z,4.25
2022-12-11T21:28:57.667Z,4.22
2022-12-11T21:31:24.871Z,5.05
2022-12-11T21:33:51.702Z,3.38
2022-12-11T21:36:18.501Z,5.28
2022-12-11T21:38:46.282Z,6.13
2022-12-11T21:41:22.759Z,4.63
2022-12-11T21:44:56.535Z,4.25
2022-12-11T21:46:39.524Z,4.50
2022-12-11T21:49:08.290Z,3.85
2022-12-11T21:51:41.365Z,4.68
2022-12-11T21:54:14.132Z,3.90
2022-12-11T21:56:41.716Z,4.78
2022-12-11T21:59:08.729Z,5.40
2022-12-11T22:01:38.552Z,4.88
2022-12-11T22:04:06.012Z,9.27
2022-12-11T22:06:33.802Z,3.65
2022-12-11T22:09:01.003Z,3.28
2022-12-11T22:11:32.099Z,4.35
2022-12-11T22:13:59.608Z,5.35
2022-12-11T22:16:26.467Z,4.15
2022-12-11T22:18:53.326Z,3.72
2022-12-11T22:21:20.979Z,5.25
2022-12-11T22:23:48.128Z,5.45
2022-12-11T22:26:21.605Z,5.15
2022-12-11T22:28:49.053Z,5.97
2022-12-11T22:31:19.727Z,5.00
2022-12-11T22:33:49.616Z,5.55
2022-12-11T22:36:18.688Z,6.63
2022-12-11T22:38:46.521Z,2.53
2022-12-11T22:41:43.436Z,4.03
2022-12-11T22:44:21.276Z,3.65
2022-12-11T22:46:50.443Z,4.38
2022-12-11T22:49:19.298Z,3.42
2022-12-11T22:51:46.350Z,4.30
2022-12-11T22:54:13.146Z,4.18
2022-12-11T22:56:39.952Z,3.33
2022-12-11T22:59:07.625Z,7.55
2022-12-11T23:01:34.667Z,2.85
2022-12-11T23:04:01.616Z,5.65
2022-12-11T23:06:28.443Z,3.13
2022-12-11T23:08:58.525Z,2.28
2022-12-11T23:11:31.157Z,2.22
2022-12-11T23:13:58.312Z,4.07
2022-12-11T23:16:27.783Z,3.05
2022-12-11T23:18:56.069Z,3.13
2022-12-11T23:21:24.366Z,2.53
2022-12-11T23:23:51.482Z,2.53
2022-12-11T23:26:19.242Z,3.60
2022-12-11T23:28:46.974Z,4.28
2022-12-11T23:31:14.656Z,3.15
2022-12-11T23:33:41.791Z,2.95
2022-12-11T23:36:09.362Z,3.72
2022-12-11T23:38:36.473Z,3.47
2022-12-11T23:41:05.631Z,3.10
2022-12-11T23:43:34.012Z,4.53
2022-12-11T23:46:00.951Z,3.85
2022-12-11T23:48:27.878Z,5.85
2022-12-11T23:50:59.786Z,4.25
2022-12-11T23:53:27.632Z,6.40
2022-12-11T23:55:54.806Z,5.03
2022-12-11T23:58:21.686Z,4.68
